SBCG/CGR METAR and TAF weather

Enter ICAO airport designator
Station Type Date Time Source
SBCG METAR 2019/08/22 04:00 UTC NOAA

SBCG 220400Z 10009KT CAVOK 22/13 Q1019


Station Type Date Time Source
SBCG Decoded METAR 2019/08/22 04:00 UTC NOAA

Station name not available
Aug 22, 2019 - 12:00 AM EDT / 2019.08.22 0400 UTC
Wind: from the E (100 degrees) at 10 MPH (9 KT):0
Visibility: greater than 7 mile(s):0
Temperature: 71 F (22 C)
Dew Point: 55 F (13 C)
Relative Humidity: 56%
Pressure (altimeter): 30.09 in. Hg (1019 hPa)
ob: SBCG 220400Z 10009KT CAVOK 22/13 Q1019
cycle: 4

Station Type Date Time Source
SBCG TAF 2019/08/22 06:39 UTC NOAA

TAF TAF SBCG 220200Z 2206/2306 09010KT CAVOK TN20/2209Z TX31/2218Z
BECMG 2208/2210 09015KT
BECMG 2214/2216 12008KT
RMK PDW

Example: see airport list